Aérodrome :
LOGIN :

S'inscrire | Disclaimer

   EN    FR    IT 

 










Légende :    VFR   VFR Marginal   IFR   IFR Intensif   IFR Très Intensif
Visi : 
Plafond : 
>= 8 km
>= 3000ft
5 à 8 km
1000 à 3000 ft
1500m à 5 km
500 à 1000 ft
800 à 1500m
200 à 500 ft
< 800m
< 200 ft
Symboles :   Orages  Brouillard  Fortes neiges  Fortes précipitations  Vent > 20 kt
SIGMETs :   Divers  Orages  Givrage  Turbulence  Onde Orograph.  Cendres Volcan.







- Altitude de l'aérodrome : 3360 ft
- Code IATA : QSF


DAAS - 8 Mai 45

DERNIER METAR :
  • 270400Z 30004KT 8000 FEW010 BKN026 09/07 Q1014

METARs EXPIRÉS :
  • 270300Z 32009KT 8000 FEW010 BKN026 10/07 Q1014
  • 270200Z 30008KT 8000 FEW010 BKN026 10/08 Q1014
  • 270100Z 30007KT 7000 -RA FEW010 BKN026 10/08 Q1014

TAF TAF DAAS
Valide du 27 à 00h jusqu'au 28 à 00h UTC


262300Z 2700/2724 29012KT 8000 FEW016 BKN026
TEMPO 2700/2704 4000 SHRA FEW023CB
BECMG 2709/2711 34012KT 9999 FEW016 SCT026
BECMG 2718/2720 09008KT
Pas de NOTAMs connus pour ce terrain.



MET'MAP, la Météo Aéronautique d'un coup d'oeil ! - Copyright ORBIFLY Décembre 2007 - Disclaimer

ORBIFLY MET'MAP TEAM :

Programmation & Développement : Alexandra Zaïnal
Conception & Développement : Baudouin d'Aumeries
Co-Programmation & Développement : Marc-Olivier Méhu
Soutien technique & logistique : Manuel Goepfert

Contact : metmap@orbifly.com




SOURCES & CREDITS :

   NOAA